N218JS -KVNY

Flight info

Callsign N218JS
Flight time N/A
Altitude VFR
Route
Aircraft SR22/L-VGD/C

Departure

Time N/A
Airport -

Arrival

Time 2026-04-25 20:20
Airport Van Nuys Airport (KVNY)
Time Latitude Longitude Altitude Speed Heading
2026-04-25 19:55 34.59710 -118.34464 6512 ft 173 kts 219°
2026-04-25 19:55 34.58705 -118.35310 6513 ft 175 kts 218°
2026-04-25 19:55 34.57769 -118.36192 6496 ft 166 kts 220°
2026-04-25 19:55 34.56860 -118.37031 6460 ft 159 kts 220°
2026-04-25 19:56 34.55982 -118.37832 6461 ft 152 kts 220°
2026-04-25 19:56 34.55146 -118.38588 6454 ft 147 kts 219°
2026-04-25 19:56 34.54335 -118.39321 6465 ft 143 kts 219°
2026-04-25 19:56 34.53547 -118.40031 6461 ft 140 kts 219°
2026-04-25 19:57 34.52755 -118.40745 6461 ft 138 kts 219°
2026-04-25 19:57 34.51984 -118.41440 6462 ft 136 kts 219°
2026-04-25 19:57 34.51225 -118.42121 6461 ft 135 kts 219°
2026-04-25 19:57 34.50476 -118.42796 6464 ft 133 kts 219°
2026-04-25 19:58 34.49727 -118.43470 6425 ft 134 kts 219°
2026-04-25 19:58 34.48967 -118.44154 6273 ft 136 kts 219°
2026-04-25 19:58 34.48201 -118.44843 6130 ft 137 kts 220°
2026-04-25 19:58 34.47481 -118.45610 6002 ft 135 kts 237°
2026-04-25 19:59 34.47113 -118.46568 6094 ft 117 kts 255°
2026-04-25 19:59 34.47001 -118.47566 5938 ft 124 kts 271°
2026-04-25 19:59 34.47228 -118.48566 5985 ft 125 kts 292°
2026-04-25 19:59 34.47496 -118.49596 5983 ft 129 kts 285°
2026-04-25 20:00 34.47780 -118.50635 5979 ft 128 kts 288°
2026-04-25 20:00 34.47978 -118.51310 5976 ft 127 kts 289°
2026-04-25 20:00 34.47854 -118.52651 5975 ft 125 kts 234°
2026-04-25 20:00 34.47078 -118.53180 5861 ft 138 kts 191°
2026-04-25 20:01 34.45255 -118.52245 5552 ft 148 kts 150°
2026-04-25 20:01 34.44336 -118.51688 5388 ft 147 kts 163°
2026-04-25 20:01 34.43346 -118.51359 5211 ft 143 kts 172°
2026-04-25 20:02 34.42385 -118.51161 5035 ft 135 kts 176°
2026-04-25 20:02 34.41457 -118.51027 4889 ft 127 kts 179°
2026-04-25 20:02 34.40622 -118.50923 4855 ft 111 kts 174°
2026-04-25 20:02 34.39893 -118.50802 4856 ft 103 kts 180°
2026-04-25 20:03 34.39145 -118.50739 4726 ft 109 kts 181°
2026-04-25 20:03 34.38367 -118.50678 4580 ft 114 kts 180°
2026-04-25 20:03 34.37575 -118.50606 4412 ft 113 kts 179°
2026-04-25 20:03 34.36851 -118.50543 4333 ft 100 kts 180°
2026-04-25 20:04 34.36150 -118.50483 4169 ft 100 kts 179°
2026-04-25 20:04 34.35454 -118.50416 4001 ft 101 kts 180°
2026-04-25 20:04 34.34731 -118.50343 3819 ft 105 kts 178°
2026-04-25 20:04 34.34004 -118.50242 3657 ft 105 kts 181°
2026-04-25 20:05 34.33270 -118.50182 3501 ft 105 kts 182°
2026-04-25 20:05 34.32526 -118.50104 3336 ft 107 kts 179°
2026-04-25 20:05 34.31786 -118.50043 3160 ft 107 kts 181°
2026-04-25 20:05 34.31038 -118.49986 2985 ft 107 kts 180°
2026-04-25 20:06 34.30298 -118.49920 2806 ft 102 kts 179°
2026-04-25 20:06 34.29590 -118.49857 2642 ft 100 kts 176°
2026-04-25 20:06 34.28906 -118.49793 2485 ft 95 kts 176°
2026-04-25 20:06 34.28257 -118.49732 2332 ft 92 kts 175°
2026-04-25 20:07 34.27620 -118.49670 2195 ft 89 kts 174°
2026-04-25 20:07 34.26990 -118.49609 2055 ft 91 kts 174°
2026-04-25 20:07 34.26367 -118.49548 1914 ft 90 kts 174°
2026-04-25 20:07 34.25737 -118.49497 1782 ft 90 kts 174°
2026-04-25 20:08 34.25100 -118.49444 1639 ft 92 kts 173°
2026-04-25 20:08 34.24455 -118.49377 1490 ft 93 kts 172°
2026-04-25 20:08 34.23811 -118.49309 1358 ft 92 kts 171°
2026-04-25 20:08 34.23173 -118.49245 1207 ft 92 kts 174°
2026-04-25 20:09 34.22471 -118.49195 1209 ft 111 kts 174°
2026-04-25 20:09 34.21633 -118.49098 1330 ft 126 kts 171°
2026-04-25 20:09 34.20768 -118.49080 1638 ft 125 kts 189°
2026-04-25 20:09 34.20085 -118.49655 2050 ft 121 kts 227°
2026-04-25 20:10 34.19542 -118.50513 2137 ft 137 kts 227°
2026-04-25 20:10 34.18973 -118.51405 2486 ft 129 kts 229°
2026-04-25 20:10 34.18440 -118.52224 2864 ft 120 kts 229°
2026-04-25 20:10 34.17913 -118.52994 3135 ft 120 kts 229°
2026-04-25 20:11 34.17363 -118.53767 3360 ft 124 kts 228°
2026-04-25 20:11 34.16752 -118.54598 3393 ft 139 kts 229°
2026-04-25 20:11 34.16087 -118.55479 3386 ft 141 kts 229°
2026-04-25 20:11 34.15404 -118.56363 3386 ft 142 kts 229°
2026-04-25 20:12 34.14716 -118.57241 3386 ft 143 kts 228°
2026-04-25 20:12 34.14030 -118.58118 3389 ft 144 kts 228°
2026-04-25 20:12 34.13343 -118.59006 3393 ft 145 kts 229°
2026-04-25 20:12 34.13018 -118.59703 3389 ft 144 kts 258°
2026-04-25 20:13 34.13432 -118.61188 3392 ft 147 kts 314°
2026-04-25 20:13 34.14226 -118.61966 3391 ft 148 kts 321°
2026-04-25 20:13 34.15046 -118.62711 3380 ft 145 kts 321°
2026-04-25 20:13 34.15850 -118.63432 3376 ft 140 kts 321°
2026-04-25 20:14 34.16620 -118.64120 3377 ft 136 kts 322°
2026-04-25 20:14 34.17530 -118.64394 3381 ft 134 kts
2026-04-25 20:14 34.18431 -118.64105 3384 ft 133 kts 17°
2026-04-25 20:14 34.19305 -118.63763 3383 ft 131 kts 17°
2026-04-25 20:15 34.20170 -118.63416 3384 ft 129 kts 17°
2026-04-25 20:15 34.21016 -118.63066 3380 ft 128 kts 20°
2026-04-25 20:15 34.21637 -118.62325 3378 ft 127 kts 66°
2026-04-25 20:15 34.21991 -118.61433 3422 ft 112 kts 62°
2026-04-25 20:16 34.22228 -118.60561 3400 ft 108 kts 85°
2026-04-25 20:16 34.22281 -118.59649 3375 ft 108 kts 87°
2026-04-25 20:16 34.22341 -118.58727 3258 ft 111 kts 86°
2026-04-25 20:16 34.22368 -118.57774 3058 ft 113 kts 92°
2026-04-25 20:17 34.22353 -118.56844 2887 ft 110 kts 96°
2026-04-25 20:17 34.22322 -118.55935 2714 ft 109 kts 97°
2026-04-25 20:17 34.22325 -118.55018 2544 ft 106 kts 92°
2026-04-25 20:17 34.22338 -118.54132 2347 ft 105 kts 96°
2026-04-25 20:18 34.22339 -118.53265 2123 ft 103 kts 95°
2026-04-25 20:18 34.22357 -118.52400 1909 ft 101 kts 96°
2026-04-25 20:18 34.22364 -118.51578 1712 ft 97 kts 98°
2026-04-25 20:18 34.22663 -118.50879 1509 ft 97 kts 41°
2026-04-25 20:19 34.23126 -118.50427 1361 ft 77 kts 79°
2026-04-25 20:19 34.23181 -118.49800 1179 ft 77 kts 103°
2026-04-25 20:19 34.22926 -118.49255 1121 ft 79 kts 153°
2026-04-25 20:19 34.22394 -118.49177 1007 ft 72 kts 175°
2026-04-25 20:20 34.21890 -118.49126 878 ft 73 kts 175°
2026-04-25 20:20 34.21413 -118.49080 791 ft 58 kts 175°
2026-04-25 20:20 34.21101 -118.49052 780 ft 32 kts 177°
2026-04-25 20:20 34.21012 -118.49133 778 ft 0 kts 253°